sensor_id;sensor_type;location;lat;lon;timestamp;P1;durP1;ratioP1;P2;durP2;ratioP2
3625;SDS011;1827;50.534;8.316;2023-11-21T00:01:36;18.67;;;5.00;;
3625;SDS011;1827;50.534;8.316;2023-11-21T00:04:02;21.57;;;5.50;;
3625;SDS011;1827;50.534;8.316;2023-11-21T00:06:28;18.37;;;5.40;;
3625;SDS011;1827;50.534;8.316;2023-11-21T00:08:55;32.90;;;6.40;;
3625;SDS011;1827;50.534;8.316;2023-11-21T00:11:22;24.83;;;6.20;;
3625;SDS011;1827;50.534;8.316;2023-11-21T00:13:48;18.03;;;5.30;;
3625;SDS011;1827;50.534;8.316;2023-11-21T00:16:14;20.87;;;6.50;;
3625;SDS011;1827;50.534;8.316;2023-11-21T00:18:41;22.67;;;8.00;;
3625;SDS011;1827;50.534;8.316;2023-11-21T00:21:08;19.03;;;5.67;;
3625;SDS011;1827;50.534;8.316;2023-11-21T00:23:35;20.77;;;5.23;;
3625;SDS011;1827;50.534;8.316;2023-11-21T00:26:01;18.33;;;5.00;;
3625;SDS011;1827;50.534;8.316;2023-11-21T00:28:29;17.70;;;4.90;;
3625;SDS011;1827;50.534;8.316;2023-11-21T00:30:55;17.90;;;4.20;;
3625;SDS011;1827;50.534;8.316;2023-11-21T00:33:21;17.43;;;3.83;;
3625;SDS011;1827;50.534;8.316;2023-11-21T00:35:47;15.00;;;3.43;;
3625;SDS011;1827;50.534;8.316;2023-11-21T00:38:13;16.33;;;3.63;;
3625;SDS011;1827;50.534;8.316;2023-11-21T00:40:39;15.40;;;3.10;;
3625;SDS011;1827;50.534;8.316;2023-11-21T00:43:07;14.00;;;2.90;;
3625;SDS011;1827;50.534;8.316;2023-11-21T00:45:33;15.80;;;2.40;;
3625;SDS011;1827;50.534;8.316;2023-11-21T00:48:00;13.23;;;2.53;;
3625;SDS011;1827;50.534;8.316;2023-11-21T00:50:27;14.57;;;2.27;;
3625;SDS011;1827;50.534;8.316;2023-11-21T00:52:55;13.47;;;2.53;;
3625;SDS011;1827;50.534;8.316;2023-11-21T00:55:22;15.77;;;2.60;;
3625;SDS011;1827;50.534;8.316;2023-11-21T00:57:52;15.37;;;2.30;;
3625;SDS011;1827;50.534;8.316;2023-11-21T01:00:21;13.60;;;2.40;;
3625;SDS011;1827;50.534;8.316;2023-11-21T01:02:50;15.53;;;2.40;;
3625;SDS011;1827;50.534;8.316;2023-11-21T01:05:17;18.43;;;2.47;;
3625;SDS011;1827;50.534;8.316;2023-11-21T01:07:43;13.30;;;2.50;;
3625;SDS011;1827;50.534;8.316;2023-11-21T01:10:09;13.90;;;2.77;;
3625;SDS011;1827;50.534;8.316;2023-11-21T01:12:36;13.60;;;2.47;;
3625;SDS011;1827;50.534;8.316;2023-11-21T01:15:05;13.50;;;2.33;;
3625;SDS011;1827;50.534;8.316;2023-11-21T01:17:33;13.47;;;2.50;;
3625;SDS011;1827;50.534;8.316;2023-11-21T01:20:02;13.90;;;2.50;;
3625;SDS011;1827;50.534;8.316;2023-11-21T01:22:31;14.43;;;2.53;;
3625;SDS011;1827;50.534;8.316;2023-11-21T01:24:58;15.13;;;2.70;;
3625;SDS011;1827;50.534;8.316;2023-11-21T01:27:24;12.87;;;2.60;;
3625;SDS011;1827;50.534;8.316;2023-11-21T01:29:51;12.93;;;2.43;;
3625;SDS011;1827;50.534;8.316;2023-11-21T01:32:18;15.37;;;2.47;;
3625;SDS011;1827;50.534;8.316;2023-11-21T01:34:45;13.67;;;2.47;;
3625;SDS011;1827;50.534;8.316;2023-11-21T01:37:11;13.07;;;2.23;;
3625;SDS011;1827;50.534;8.316;2023-11-21T01:39:37;14.07;;;2.53;;
3625;SDS011;1827;50.534;8.316;2023-11-21T01:42:04;14.37;;;2.00;;
3625;SDS011;1827;50.534;8.316;2023-11-21T01:44:30;17.40;;;2.33;;
3625;SDS011;1827;50.534;8.316;2023-11-21T01:46:56;14.57;;;2.20;;
3625;SDS011;1827;50.534;8.316;2023-11-21T01:49:23;19.70;;;2.37;;
3625;SDS011;1827;50.534;8.316;2023-11-21T01:51:49;12.87;;;2.03;;
3625;SDS011;1827;50.534;8.316;2023-11-21T01:54:18;17.80;;;1.90;;
3625;SDS011;1827;50.534;8.316;2023-11-21T01:56:47;12.83;;;1.93;;
3625;SDS011;1827;50.534;8.316;2023-11-21T01:59:20;12.50;;;1.90;;
3625;SDS011;1827;50.534;8.316;2023-11-21T02:01:48;16.40;;;2.20;;
3625;SDS011;1827;50.534;8.316;2023-11-21T02:04:18;19.47;;;2.60;;
3625;SDS011;1827;50.534;8.316;2023-11-21T02:06:47;13.27;;;2.27;;
3625;SDS011;1827;50.534;8.316;2023-11-21T02:09:13;14.53;;;2.60;;
3625;SDS011;1827;50.534;8.316;2023-11-21T02:11:41;15.33;;;2.63;;
3625;SDS011;1827;50.534;8.316;2023-11-21T02:14:09;13.67;;;2.73;;
3625;SDS011;1827;50.534;8.316;2023-11-21T02:16:39;14.90;;;2.97;;
3625;SDS011;1827;50.534;8.316;2023-11-21T02:19:07;19.97;;;3.23;;
3625;SDS011;1827;50.534;8.316;2023-11-21T02:21:39;15.10;;;3.30;;
3625;SDS011;1827;50.534;8.316;2023-11-21T02:24:06;16.57;;;3.20;;
3625;SDS011;1827;50.534;8.316;2023-11-21T02:26:32;14.70;;;2.80;;
3625;SDS011;1827;50.534;8.316;2023-11-21T02:28:59;14.00;;;2.40;;
3625;SDS011;1827;50.534;8.316;2023-11-21T02:31:25;14.70;;;2.37;;
3625;SDS011;1827;50.534;8.316;2023-11-21T02:33:52;13.77;;;2.57;;
3625;SDS011;1827;50.534;8.316;2023-11-21T02:36:18;14.60;;;2.30;;
3625;SDS011;1827;50.534;8.316;2023-11-21T02:38:44;17.20;;;2.43;;
3625;SDS011;1827;50.534;8.316;2023-11-21T02:41:11;15.37;;;2.47;;
3625;SDS011;1827;50.534;8.316;2023-11-21T02:43:36;15.20;;;2.40;;
3625;SDS011;1827;50.534;8.316;2023-11-21T02:46:03;13.70;;;2.20;;
3625;SDS011;1827;50.534;8.316;2023-11-21T02:48:29;18.53;;;2.90;;
3625;SDS011;1827;50.534;8.316;2023-11-21T02:50:56;17.30;;;2.60;;
3625;SDS011;1827;50.534;8.316;2023-11-21T02:53:22;18.43;;;2.97;;
3625;SDS011;1827;50.534;8.316;2023-11-21T02:55:49;14.80;;;2.97;;
3625;SDS011;1827;50.534;8.316;2023-11-21T02:58:15;15.40;;;2.90;;
3625;SDS011;1827;50.534;8.316;2023-11-21T03:00:42;15.50;;;3.30;;
3625;SDS011;1827;50.534;8.316;2023-11-21T03:03:08;16.20;;;3.03;;
3625;SDS011;1827;50.534;8.316;2023-11-21T03:05:34;14.57;;;3.10;;
3625;SDS011;1827;50.534;8.316;2023-11-21T03:08:02;14.97;;;3.00;;
3625;SDS011;1827;50.534;8.316;2023-11-21T03:10:28;17.27;;;3.47;;
3625;SDS011;1827;50.534;8.316;2023-11-21T03:12:54;17.00;;;3.83;;
3625;SDS011;1827;50.534;8.316;2023-11-21T03:15:22;17.27;;;4.00;;
3625;SDS011;1827;50.534;8.316;2023-11-21T03:17:48;22.10;;;4.43;;
3625;SDS011;1827;50.534;8.316;2023-11-21T03:20:15;17.60;;;4.73;;
3625;SDS011;1827;50.534;8.316;2023-11-21T03:22:41;22.90;;;5.40;;
3625;SDS011;1827;50.534;8.316;2023-11-21T03:25:07;19.10;;;5.47;;
3625;SDS011;1827;50.534;8.316;2023-11-21T03:27:36;17.80;;;5.30;;
3625;SDS011;1827;50.534;8.316;2023-11-21T03:30:04;19.83;;;4.37;;
3625;SDS011;1827;50.534;8.316;2023-11-21T03:32:32;18.50;;;4.47;;
3625;SDS011;1827;50.534;8.316;2023-11-21T03:34:58;21.63;;;4.00;;
3625;SDS011;1827;50.534;8.316;2023-11-21T03:37:25;18.20;;;3.80;;
3625;SDS011;1827;50.534;8.316;2023-11-21T03:39:54;16.97;;;4.20;;
3625;SDS011;1827;50.534;8.316;2023-11-21T03:42:23;16.63;;;3.50;;
3625;SDS011;1827;50.534;8.316;2023-11-21T03:44:50;16.50;;;3.63;;
3625;SDS011;1827;50.534;8.316;2023-11-21T03:47:19;19.00;;;3.67;;
3625;SDS011;1827;50.534;8.316;2023-11-21T03:49:45;20.20;;;3.80;;
3625;SDS011;1827;50.534;8.316;2023-11-21T03:52:15;19.63;;;4.20;;
3625;SDS011;1827;50.534;8.316;2023-11-21T03:54:41;16.23;;;4.30;;
3625;SDS011;1827;50.534;8.316;2023-11-21T03:57:08;18.30;;;4.13;;
3625;SDS011;1827;50.534;8.316;2023-11-21T03:59:35;18.07;;;3.57;;
3625;SDS011;1827;50.534;8.316;2023-11-21T04:02:01;17.47;;;4.13;;
3625;SDS011;1827;50.534;8.316;2023-11-21T04:04:27;20.53;;;3.90;;
3625;SDS011;1827;50.534;8.316;2023-11-21T04:06:53;18.73;;;4.37;;
3625;SDS011;1827;50.534;8.316;2023-11-21T04:09:19;22.13;;;4.40;;
3625;SDS011;1827;50.534;8.316;2023-11-21T04:11:45;21.37;;;4.70;;
3625;SDS011;1827;50.534;8.316;2023-11-21T04:14:12;17.10;;;4.90;;
3625;SDS011;1827;50.534;8.316;2023-11-21T04:16:38;17.10;;;4.87;;
3625;SDS011;1827;50.534;8.316;2023-11-21T04:19:09;23.73;;;5.00;;
3625;SDS011;1827;50.534;8.316;2023-11-21T04:21:36;19.80;;;4.93;;
3625;SDS011;1827;50.534;8.316;2023-11-21T04:24:02;23.03;;;5.50;;
3625;SDS011;1827;50.534;8.316;2023-11-21T04:26:28;55.77;;;6.73;;
3625;SDS011;1827;50.534;8.316;2023-11-21T04:28:54;40.77;;;6.23;;
3625;SDS011;1827;50.534;8.316;2023-11-21T04:31:22;21.70;;;6.67;;
3625;SDS011;1827;50.534;8.316;2023-11-21T04:33:50;39.00;;;6.70;;
3625;SDS011;1827;50.534;8.316;2023-11-21T04:36:16;25.10;;;6.90;;
3625;SDS011;1827;50.534;8.316;2023-11-21T04:38:42;22.37;;;6.27;;
3625;SDS011;1827;50.534;8.316;2023-11-21T04:41:10;30.43;;;6.73;;
3625;SDS011;1827;50.534;8.316;2023-11-21T04:43:40;22.60;;;6.50;;
3625;SDS011;1827;50.534;8.316;2023-11-21T04:46:08;20.83;;;5.53;;
3625;SDS011;1827;50.534;8.316;2023-11-21T04:48:36;20.10;;;5.73;;
3625;SDS011;1827;50.534;8.316;2023-11-21T04:51:02;20.50;;;5.73;;
3625;SDS011;1827;50.534;8.316;2023-11-21T04:53:30;19.87;;;5.40;;
3625;SDS011;1827;50.534;8.316;2023-11-21T04:55:57;23.37;;;5.30;;
3625;SDS011;1827;50.534;8.316;2023-11-21T04:58:24;20.80;;;5.30;;
3625;SDS011;1827;50.534;8.316;2023-11-21T05:00:50;24.47;;;6.10;;
3625;SDS011;1827;50.534;8.316;2023-11-21T05:03:16;27.10;;;6.13;;
3625;SDS011;1827;50.534;8.316;2023-11-21T05:05:42;17.70;;;5.43;;
3625;SDS011;1827;50.534;8.316;2023-11-21T05:08:09;20.63;;;5.90;;
3625;SDS011;1827;50.534;8.316;2023-11-21T05:10:37;20.07;;;5.77;;
3625;SDS011;1827;50.534;8.316;2023-11-21T05:13:05;23.23;;;6.10;;
3625;SDS011;1827;50.534;8.316;2023-11-21T05:15:35;21.80;;;6.23;;
3625;SDS011;1827;50.534;8.316;2023-11-21T05:18:01;19.23;;;5.47;;
3625;SDS011;1827;50.534;8.316;2023-11-21T05:20:28;20.80;;;5.90;;
3625;SDS011;1827;50.534;8.316;2023-11-21T05:22:54;19.40;;;5.50;;
3625;SDS011;1827;50.534;8.316;2023-11-21T05:25:22;19.63;;;6.00;;
3625;SDS011;1827;50.534;8.316;2023-11-21T05:27:49;19.90;;;5.80;;
3625;SDS011;1827;50.534;8.316;2023-11-21T05:30:17;20.63;;;5.80;;
3625;SDS011;1827;50.534;8.316;2023-11-21T05:32:44;20.50;;;5.97;;
3625;SDS011;1827;50.534;8.316;2023-11-21T05:35:12;21.10;;;6.13;;
3625;SDS011;1827;50.534;8.316;2023-11-21T05:37:42;22.00;;;6.80;;
3625;SDS011;1827;50.534;8.316;2023-11-21T05:40:11;18.90;;;5.30;;
3625;SDS011;1827;50.534;8.316;2023-11-21T05:42:40;20.27;;;6.17;;
3625;SDS011;1827;50.534;8.316;2023-11-21T05:45:07;24.47;;;6.97;;
3625;SDS011;1827;50.534;8.316;2023-11-21T05:47:42;18.90;;;5.77;;
3625;SDS011;1827;50.534;8.316;2023-11-21T05:50:12;19.87;;;6.43;;
3625;SDS011;1827;50.534;8.316;2023-11-21T05:52:42;27.73;;;7.13;;
3625;SDS011;1827;50.534;8.316;2023-11-21T05:55:11;21.37;;;7.00;;
3625;SDS011;1827;50.534;8.316;2023-11-21T05:57:40;28.63;;;8.00;;
3625;SDS011;1827;50.534;8.316;2023-11-21T06:00:09;23.10;;;8.00;;
3625;SDS011;1827;50.534;8.316;2023-11-21T06:02:38;22.50;;;7.40;;
3625;SDS011;1827;50.534;8.316;2023-11-21T06:05:05;21.87;;;8.00;;
3625;SDS011;1827;50.534;8.316;2023-11-21T06:07:32;35.43;;;7.60;;
3625;SDS011;1827;50.534;8.316;2023-11-21T06:09:58;23.27;;;7.60;;
3625;SDS011;1827;50.534;8.316;2023-11-21T06:12:24;23.10;;;7.70;;
3625;SDS011;1827;50.534;8.316;2023-11-21T06:14:50;23.87;;;8.10;;
3625;SDS011;1827;50.534;8.316;2023-11-21T06:17:16;23.93;;;7.73;;
3625;SDS011;1827;50.534;8.316;2023-11-21T06:19:43;39.07;;;7.17;;
3625;SDS011;1827;50.534;8.316;2023-11-21T06:22:11;23.63;;;6.93;;
3625;SDS011;1827;50.534;8.316;2023-11-21T06:24:37;37.47;;;7.57;;
3625;SDS011;1827;50.534;8.316;2023-11-21T06:27:04;21.17;;;7.23;;
3625;SDS011;1827;50.534;8.316;2023-11-21T06:29:31;22.67;;;6.67;;
3625;SDS011;1827;50.534;8.316;2023-11-21T06:31:57;22.53;;;7.00;;
3625;SDS011;1827;50.534;8.316;2023-11-21T06:34:23;20.63;;;6.30;;
3625;SDS011;1827;50.534;8.316;2023-11-21T06:36:50;19.37;;;6.23;;
3625;SDS011;1827;50.534;8.316;2023-11-21T06:39:17;28.80;;;7.53;;
3625;SDS011;1827;50.534;8.316;2023-11-21T06:41:49;19.90;;;6.10;;
3625;SDS011;1827;50.534;8.316;2023-11-21T06:44:15;18.13;;;6.20;;
3625;SDS011;1827;50.534;8.316;2023-11-21T06:46:41;22.83;;;6.60;;
3625;SDS011;1827;50.534;8.316;2023-11-21T06:49:08;25.03;;;7.93;;
3625;SDS011;1827;50.534;8.316;2023-11-21T06:51:34;21.33;;;7.00;;
3625;SDS011;1827;50.534;8.316;2023-11-21T06:54:00;18.17;;;6.03;;
3625;SDS011;1827;50.534;8.316;2023-11-21T06:56:26;20.10;;;7.00;;
3625;SDS011;1827;50.534;8.316;2023-11-21T06:58:52;23.13;;;7.40;;
3625;SDS011;1827;50.534;8.316;2023-11-21T07:01:20;23.33;;;7.70;;
3625;SDS011;1827;50.534;8.316;2023-11-21T07:03:46;22.60;;;7.67;;
3625;SDS011;1827;50.534;8.316;2023-11-21T07:06:12;26.10;;;7.87;;
3625;SDS011;1827;50.534;8.316;2023-11-21T07:08:38;22.60;;;7.40;;
3625;SDS011;1827;50.534;8.316;2023-11-21T07:11:04;22.03;;;7.53;;
3625;SDS011;1827;50.534;8.316;2023-11-21T07:13:30;22.40;;;8.07;;
3625;SDS011;1827;50.534;8.316;2023-11-21T07:15:57;24.90;;;6.90;;
3625;SDS011;1827;50.534;8.316;2023-11-21T07:18:24;26.57;;;7.60;;
3625;SDS011;1827;50.534;8.316;2023-11-21T07:20:50;21.90;;;7.53;;
3625;SDS011;1827;50.534;8.316;2023-11-21T07:23:17;24.03;;;7.57;;
3625;SDS011;1827;50.534;8.316;2023-11-21T07:25:43;26.53;;;7.97;;
3625;SDS011;1827;50.534;8.316;2023-11-21T07:28:09;20.10;;;7.30;;
3625;SDS011;1827;50.534;8.316;2023-11-21T07:30:35;28.30;;;6.80;;
3625;SDS011;1827;50.534;8.316;2023-11-21T07:33:01;25.60;;;7.20;;
3625;SDS011;1827;50.534;8.316;2023-11-21T07:35:27;20.60;;;6.80;;
3625;SDS011;1827;50.534;8.316;2023-11-21T07:37:53;19.90;;;6.20;;
3625;SDS011;1827;50.534;8.316;2023-11-21T07:40:19;25.67;;;6.97;;
3625;SDS011;1827;50.534;8.316;2023-11-21T07:42:45;20.20;;;6.13;;
3625;SDS011;1827;50.534;8.316;2023-11-21T07:45:11;22.93;;;6.50;;
3625;SDS011;1827;50.534;8.316;2023-11-21T07:47:37;21.43;;;7.20;;
3625;SDS011;1827;50.534;8.316;2023-11-21T07:50:04;21.43;;;6.53;;
3625;SDS011;1827;50.534;8.316;2023-11-21T07:52:30;25.43;;;7.60;;
3625;SDS011;1827;50.534;8.316;2023-11-21T07:54:56;22.30;;;7.67;;
3625;SDS011;1827;50.534;8.316;2023-11-21T07:57:21;21.50;;;7.60;;
3625;SDS011;1827;50.534;8.316;2023-11-21T07:59:47;31.73;;;8.60;;
3625;SDS011;1827;50.534;8.316;2023-11-21T08:02:13;23.00;;;7.43;;
3625;SDS011;1827;50.534;8.316;2023-11-21T08:04:39;25.13;;;7.67;;
3625;SDS011;1827;50.534;8.316;2023-11-21T08:07:06;27.07;;;8.13;;
3625;SDS011;1827;50.534;8.316;2023-11-21T08:09:32;21.50;;;5.73;;
3625;SDS011;1827;50.534;8.316;2023-11-21T08:11:59;17.83;;;5.20;;
3625;SDS011;1827;50.534;8.316;2023-11-21T08:14:28;20.30;;;5.50;;
3625;SDS011;1827;50.534;8.316;2023-11-21T08:16:54;19.20;;;5.80;;
3625;SDS011;1827;50.534;8.316;2023-11-21T08:19:23;19.67;;;5.90;;
3625;SDS011;1827;50.534;8.316;2023-11-21T08:21:53;27.50;;;7.60;;
3625;SDS011;1827;50.534;8.316;2023-11-21T08:24:21;31.17;;;7.00;;
3625;SDS011;1827;50.534;8.316;2023-11-21T08:26:47;22.10;;;6.70;;
3625;SDS011;1827;50.534;8.316;2023-11-21T08:29:13;24.93;;;7.63;;
3625;SDS011;1827;50.534;8.316;2023-11-21T08:31:39;21.60;;;7.07;;
3625;SDS011;1827;50.534;8.316;2023-11-21T08:34:06;25.27;;;6.97;;
3625;SDS011;1827;50.534;8.316;2023-11-21T08:36:32;21.00;;;7.00;;
3625;SDS011;1827;50.534;8.316;2023-11-21T08:38:58;29.23;;;6.73;;
3625;SDS011;1827;50.534;8.316;2023-11-21T08:41:24;22.37;;;6.77;;
3625;SDS011;1827;50.534;8.316;2023-11-21T08:43:53;23.77;;;6.70;;
3625;SDS011;1827;50.534;8.316;2023-11-21T08:46:20;25.43;;;6.67;;
3625;SDS011;1827;50.534;8.316;2023-11-21T08:48:46;20.33;;;6.03;;
3625;SDS011;1827;50.534;8.316;2023-11-21T08:51:12;23.93;;;6.43;;
3625;SDS011;1827;50.534;8.316;2023-11-21T08:53:39;32.97;;;7.37;;
3625;SDS011;1827;50.534;8.316;2023-11-21T08:56:05;22.73;;;6.07;;
3625;SDS011;1827;50.534;8.316;2023-11-21T08:58:32;34.13;;;7.20;;
3625;SDS011;1827;50.534;8.316;2023-11-21T09:00:58;24.23;;;7.30;;
3625;SDS011;1827;50.534;8.316;2023-11-21T09:03:25;20.70;;;6.33;;
3625;SDS011;1827;50.534;8.316;2023-11-21T09:05:54;34.57;;;7.03;;
3625;SDS011;1827;50.534;8.316;2023-11-21T09:08:20;25.60;;;6.93;;
3625;SDS011;1827;50.534;8.316;2023-11-21T09:10:47;21.67;;;6.83;;
3625;SDS011;1827;50.534;8.316;2023-11-21T09:13:13;24.23;;;6.20;;
3625;SDS011;1827;50.534;8.316;2023-11-21T09:15:38;22.47;;;5.97;;
3625;SDS011;1827;50.534;8.316;2023-11-21T09:18:05;21.13;;;6.00;;
3625;SDS011;1827;50.534;8.316;2023-11-21T09:20:31;22.17;;;6.60;;
3625;SDS011;1827;50.534;8.316;2023-11-21T09:22:56;23.40;;;6.70;;
3625;SDS011;1827;50.534;8.316;2023-11-21T09:25:22;18.90;;;5.70;;
3625;SDS011;1827;50.534;8.316;2023-11-21T09:27:47;33.43;;;6.83;;
3625;SDS011;1827;50.534;8.316;2023-11-21T09:30:13;22.10;;;6.30;;
3625;SDS011;1827;50.534;8.316;2023-11-21T09:32:39;19.17;;;5.80;;
3625;SDS011;1827;50.534;8.316;2023-11-21T09:35:05;21.90;;;5.33;;
3625;SDS011;1827;50.534;8.316;2023-11-21T09:37:34;25.20;;;5.40;;
3625;SDS011;1827;50.534;8.316;2023-11-21T09:40:03;20.03;;;5.17;;
3625;SDS011;1827;50.534;8.316;2023-11-21T09:42:32;26.57;;;5.43;;
3625;SDS011;1827;50.534;8.316;2023-11-21T09:47:56;19.73;;;5.60;;
3625;SDS011;1827;50.534;8.316;2023-11-21T09:50:22;20.93;;;5.87;;
3625;SDS011;1827;50.534;8.316;2023-11-21T09:55:44;28.83;;;6.20;;
3625;SDS011;1827;50.534;8.316;2023-11-21T09:58:11;17.93;;;4.77;;
3625;SDS011;1827;50.534;8.316;2023-11-21T10:00:39;21.80;;;4.60;;
3625;SDS011;1827;50.534;8.316;2023-11-21T10:03:10;22.00;;;6.10;;
3625;SDS011;1827;50.534;8.316;2023-11-21T10:05:37;19.60;;;5.70;;
3625;SDS011;1827;50.534;8.316;2023-11-21T10:08:04;18.70;;;5.33;;
3625;SDS011;1827;50.534;8.316;2023-11-21T10:10:33;23.80;;;6.90;;
3625;SDS011;1827;50.534;8.316;2023-11-21T10:13:02;25.27;;;6.43;;
3625;SDS011;1827;50.534;8.316;2023-11-21T10:15:33;23.60;;;6.10;;
3625;SDS011;1827;50.534;8.316;2023-11-21T10:18:03;26.40;;;6.07;;
3625;SDS011;1827;50.534;8.316;2023-11-21T10:20:32;23.13;;;5.40;;
3625;SDS011;1827;50.534;8.316;2023-11-21T10:22:59;21.93;;;5.57;;
3625;SDS011;1827;50.534;8.316;2023-11-21T10:25:29;20.80;;;5.23;;
3625;SDS011;1827;50.534;8.316;2023-11-21T10:28:00;19.10;;;5.30;;
3625;SDS011;1827;50.534;8.316;2023-11-21T10:33:07;23.30;;;4.83;;
3625;SDS011;1827;50.534;8.316;2023-11-21T10:35:48;21.30;;;5.17;;
3625;SDS011;1827;50.534;8.316;2023-11-21T10:38:20;19.67;;;5.57;;
3625;SDS011;1827;50.534;8.316;2023-11-21T10:40:48;20.67;;;5.33;;
3625;SDS011;1827;50.534;8.316;2023-11-21T10:43:15;20.70;;;5.30;;
3625;SDS011;1827;50.534;8.316;2023-11-21T10:45:41;19.00;;;4.83;;
3625;SDS011;1827;50.534;8.316;2023-11-21T10:48:14;21.57;;;4.20;;
3625;SDS011;1827;50.534;8.316;2023-11-21T10:50:40;24.60;;;4.97;;
3625;SDS011;1827;50.534;8.316;2023-11-21T10:53:07;17.23;;;4.63;;
3625;SDS011;1827;50.534;8.316;2023-11-21T10:55:33;22.07;;;4.80;;
3625;SDS011;1827;50.534;8.316;2023-11-21T10:58:03;21.07;;;4.40;;
3625;SDS011;1827;50.534;8.316;2023-11-21T11:00:31;17.80;;;3.47;;
3625;SDS011;1827;50.534;8.316;2023-11-21T11:02:57;21.87;;;4.10;;
3625;SDS011;1827;50.534;8.316;2023-11-21T11:05:24;17.20;;;4.17;;
3625;SDS011;1827;50.534;8.316;2023-11-21T11:08:03;22.37;;;3.70;;
3625;SDS011;1827;50.534;8.316;2023-11-21T11:10:30;20.17;;;4.60;;
3625;SDS011;1827;50.534;8.316;2023-11-21T11:12:57;19.40;;;4.20;;
3625;SDS011;1827;50.534;8.316;2023-11-21T11:15:24;24.30;;;4.40;;
3625;SDS011;1827;50.534;8.316;2023-11-21T11:17:51;19.60;;;4.50;;
3625;SDS011;1827;50.534;8.316;2023-11-21T11:20:17;19.83;;;4.30;;
3625;SDS011;1827;50.534;8.316;2023-11-21T11:22:48;17.67;;;4.00;;
3625;SDS011;1827;50.534;8.316;2023-11-21T11:28:27;19.40;;;4.20;;
3625;SDS011;1827;50.534;8.316;2023-11-21T11:31:28;22.33;;;5.47;;
3625;SDS011;1827;50.534;8.316;2023-11-21T11:34:17;22.10;;;4.53;;
3625;SDS011;1827;50.534;8.316;2023-11-21T11:37:02;21.33;;;5.37;;
3625;SDS011;1827;50.534;8.316;2023-11-21T11:39:39;21.43;;;5.20;;
3625;SDS011;1827;50.534;8.316;2023-11-21T11:42:14;19.40;;;4.23;;
3625;SDS011;1827;50.534;8.316;2023-11-21T11:47:21;24.07;;;4.93;;
3625;SDS011;1827;50.534;8.316;2023-11-21T11:50:11;21.30;;;4.17;;
3625;SDS011;1827;50.534;8.316;2023-11-21T11:52:42;18.23;;;4.37;;
3625;SDS011;1827;50.534;8.316;2023-11-21T11:55:13;19.67;;;4.23;;
3625;SDS011;1827;50.534;8.316;2023-11-21T11:57:43;26.10;;;4.97;;
3625;SDS011;1827;50.534;8.316;2023-11-21T12:03:08;22.03;;;5.53;;
3625;SDS011;1827;50.534;8.316;2023-11-21T12:05:35;18.27;;;4.97;;
3625;SDS011;1827;50.534;8.316;2023-11-21T12:08:04;26.80;;;5.93;;
3625;SDS011;1827;50.534;8.316;2023-11-21T12:10:33;23.37;;;5.93;;
3625;SDS011;1827;50.534;8.316;2023-11-21T12:13:00;18.80;;;5.53;;
3625;SDS011;1827;50.534;8.316;2023-11-21T12:15:27;19.20;;;4.93;;
3625;SDS011;1827;50.534;8.316;2023-11-21T12:17:57;20.10;;;5.10;;
3625;SDS011;1827;50.534;8.316;2023-11-21T12:20:26;21.73;;;4.90;;
3625;SDS011;1827;50.534;8.316;2023-11-21T12:22:55;21.27;;;5.33;;
3625;SDS011;1827;50.534;8.316;2023-11-21T12:25:28;20.60;;;5.00;;
3625;SDS011;1827;50.534;8.316;2023-11-21T12:27:58;26.27;;;4.73;;
3625;SDS011;1827;50.534;8.316;2023-11-21T12:30:27;19.93;;;5.00;;
3625;SDS011;1827;50.534;8.316;2023-11-21T12:32:57;23.03;;;4.40;;
3625;SDS011;1827;50.534;8.316;2023-11-21T12:35:27;19.50;;;4.37;;
3625;SDS011;1827;50.534;8.316;2023-11-21T12:37:55;25.00;;;5.20;;
3625;SDS011;1827;50.534;8.316;2023-11-21T12:40:24;19.30;;;4.90;;
3625;SDS011;1827;50.534;8.316;2023-11-21T12:42:57;19.50;;;5.10;;
3625;SDS011;1827;50.534;8.316;2023-11-21T12:45:25;20.33;;;5.23;;
3625;SDS011;1827;50.534;8.316;2023-11-21T12:47:56;25.17;;;6.00;;
3625;SDS011;1827;50.534;8.316;2023-11-21T12:50:30;18.97;;;4.77;;
3625;SDS011;1827;50.534;8.316;2023-11-21T12:53:04;19.63;;;4.83;;
3625;SDS011;1827;50.534;8.316;2023-11-21T12:55:34;26.63;;;5.50;;
3625;SDS011;1827;50.534;8.316;2023-11-21T12:58:06;24.43;;;5.40;;
3625;SDS011;1827;50.534;8.316;2023-11-21T13:00:36;20.07;;;5.00;;
3625;SDS011;1827;50.534;8.316;2023-11-21T13:03:05;20.43;;;4.50;;
3625;SDS011;1827;50.534;8.316;2023-11-21T13:05:35;20.47;;;5.03;;
3625;SDS011;1827;50.534;8.316;2023-11-21T13:08:08;21.60;;;4.63;;
3625;SDS011;1827;50.534;8.316;2023-11-21T13:10:42;22.60;;;4.30;;
3625;SDS011;1827;50.534;8.316;2023-11-21T13:13:12;18.43;;;4.83;;
3625;SDS011;1827;50.534;8.316;2023-11-21T13:15:49;21.50;;;4.77;;
3625;SDS011;1827;50.534;8.316;2023-11-21T13:18:23;20.07;;;4.97;;
3625;SDS011;1827;50.534;8.316;2023-11-21T13:20:55;19.50;;;4.90;;
3625;SDS011;1827;50.534;8.316;2023-11-21T13:23:28;20.23;;;5.67;;
3625;SDS011;1827;50.534;8.316;2023-11-21T13:26:02;19.57;;;5.20;;
3625;SDS011;1827;50.534;8.316;2023-11-21T13:28:33;19.67;;;5.50;;
3625;SDS011;1827;50.534;8.316;2023-11-21T13:31:01;19.27;;;5.33;;
3625;SDS011;1827;50.534;8.316;2023-11-21T13:33:38;22.23;;;5.17;;
3625;SDS011;1827;50.534;8.316;2023-11-21T13:36:06;24.50;;;5.27;;
3625;SDS011;1827;50.534;8.316;2023-11-21T13:38:35;20.00;;;4.90;;
3625;SDS011;1827;50.534;8.316;2023-11-21T13:41:03;21.07;;;4.87;;
3625;SDS011;1827;50.534;8.316;2023-11-21T13:43:33;20.07;;;5.80;;
3625;SDS011;1827;50.534;8.316;2023-11-21T13:45:59;20.63;;;6.10;;
3625;SDS011;1827;50.534;8.316;2023-11-21T13:48:29;23.00;;;5.73;;
3625;SDS011;1827;50.534;8.316;2023-11-21T13:51:06;20.40;;;5.90;;
3625;SDS011;1827;50.534;8.316;2023-11-21T13:53:46;24.30;;;5.87;;
3625;SDS011;1827;50.534;8.316;2023-11-21T13:56:15;17.97;;;5.10;;
3625;SDS011;1827;50.534;8.316;2023-11-21T13:58:50;20.73;;;5.50;;
3625;SDS011;1827;50.534;8.316;2023-11-21T14:01:18;17.83;;;4.73;;
3625;SDS011;1827;50.534;8.316;2023-11-21T14:04:00;22.50;;;5.30;;
3625;SDS011;1827;50.534;8.316;2023-11-21T14:06:39;26.30;;;5.07;;
3625;SDS011;1827;50.534;8.316;2023-11-21T14:09:23;21.17;;;5.90;;
3625;SDS011;1827;50.534;8.316;2023-11-21T14:11:51;24.40;;;5.57;;
3625;SDS011;1827;50.534;8.316;2023-11-21T14:14:23;19.57;;;5.47;;
3625;SDS011;1827;50.534;8.316;2023-11-21T14:16:51;24.30;;;7.60;;
3625;SDS011;1827;50.534;8.316;2023-11-21T14:19:17;27.30;;;7.23;;
3625;SDS011;1827;50.534;8.316;2023-11-21T14:21:47;26.43;;;7.60;;
3625;SDS011;1827;50.534;8.316;2023-11-21T14:24:16;41.60;;;16.10;;
3625;SDS011;1827;50.534;8.316;2023-11-21T14:26:43;27.17;;;10.00;;
3625;SDS011;1827;50.534;8.316;2023-11-21T14:29:12;33.70;;;12.40;;
3625;SDS011;1827;50.534;8.316;2023-11-21T14:31:40;36.37;;;13.37;;
3625;SDS011;1827;50.534;8.316;2023-11-21T14:34:07;31.27;;;8.73;;
3625;SDS011;1827;50.534;8.316;2023-11-21T14:36:33;30.40;;;7.90;;
3625;SDS011;1827;50.534;8.316;2023-11-21T14:39:02;27.60;;;8.70;;
3625;SDS011;1827;50.534;8.316;2023-11-21T14:41:32;26.30;;;10.07;;
3625;SDS011;1827;50.534;8.316;2023-11-21T14:44:01;38.10;;;13.97;;
3625;SDS011;1827;50.534;8.316;2023-11-21T14:46:33;39.17;;;13.20;;
3625;SDS011;1827;50.534;8.316;2023-11-21T14:49:00;37.30;;;13.33;;
3625;SDS011;1827;50.534;8.316;2023-11-21T14:51:44;34.93;;;13.17;;
3625;SDS011;1827;50.534;8.316;2023-11-21T14:54:28;38.10;;;11.67;;
3625;SDS011;1827;50.534;8.316;2023-11-21T14:57:11;36.63;;;12.33;;
3625;SDS011;1827;50.534;8.316;2023-11-21T14:59:43;35.17;;;11.10;;
3625;SDS011;1827;50.534;8.316;2023-11-21T15:02:13;35.27;;;12.30;;
3625;SDS011;1827;50.534;8.316;2023-11-21T15:04:43;34.70;;;11.80;;
3625;SDS011;1827;50.534;8.316;2023-11-21T15:07:12;42.70;;;11.67;;
3625;SDS011;1827;50.534;8.316;2023-11-21T15:09:38;26.57;;;9.07;;
3625;SDS011;1827;50.534;8.316;2023-11-21T15:12:07;33.00;;;9.27;;
3625;SDS011;1827;50.534;8.316;2023-11-21T15:14:49;23.63;;;7.37;;
3625;SDS011;1827;50.534;8.316;2023-11-21T15:17:22;24.60;;;6.13;;
3625;SDS011;1827;50.534;8.316;2023-11-21T15:19:49;24.47;;;7.20;;
3625;SDS011;1827;50.534;8.316;2023-11-21T15:22:15;29.73;;;6.77;;
3625;SDS011;1827;50.534;8.316;2023-11-21T15:24:42;24.70;;;6.70;;